Time,TemperatureF,DewpointF,PressureIn,WindDirection,WindDirectionDegrees,WindSpeedMPH,WindSpeedGustMPH,Humidity,HourlyPrecipIn,Conditions,Clouds,dailyrainin,SolarRadiationWatts/m^2,SoftwareType,DateUTC
2013-02-13 00:14:00,40.9,38.0,30.23,SE,136,2.0,3.0,88,0.00,,,0.00,0,weatherlink.com 1.10,2013-02-13 08:14:00,
2013-02-13 00:29:00,40.9,38.0,30.23,SE,136,3.0,4.0,88,0.00,,,0.00,0,weatherlink.com 1.10,2013-02-13 08:29:00,
2013-02-13 00:44:00,41.3,38.0,30.23,SE,136,3.0,4.0,88,0.00,,,0.00,0,weatherlink.com 1.10,2013-02-13 08:44:00,
2013-02-13 00:59:00,41.9,39.0,30.23,SE,138,2.0,4.0,89,0.00,,,0.00,0,weatherlink.com 1.10,2013-02-13 08:59:00,
2013-02-13 01:14:00,42.3,39.0,30.23,SE,138,3.0,3.0,89,0.00,,,0.00,0,weatherlink.com 1.10,2013-02-13 09:14:00,
2013-02-13 01:30:00,42.2,39.0,30.22,SE,138,2.0,3.0,88,0.00,,,0.00,0,weatherlink.com 1.10,2013-02-13 09:30:00,
2013-02-13 01:44:00,42.3,39.0,30.22,SE,137,2.0,3.0,89,0.00,,,0.00,0,weatherlink.com 1.10,2013-02-13 09:44:00,
2013-02-13 02:00:00,42.5,39.0,30.22,SSE,159,1.0,3.0,87,0.00,,,0.00,0,weatherlink.com 1.10,2013-02-13 10:00:00,
2013-02-13 02:15:00,42.0,39.0,30.22,SSE,159,2.0,2.0,88,0.00,,,0.00,0,weatherlink.com 1.10,2013-02-13 10:15:00,
2013-02-13 02:29:00,42.4,39.0,30.22,SE,135,0.0,3.0,88,0.00,,,0.00,0,weatherlink.com 1.10,2013-02-13 10:29:00,
2013-02-13 02:45:00,42.3,38.0,30.21,SW,215,1.0,3.0,86,0.00,,,0.00,0,weatherlink.com 1.10,2013-02-13 10:45:00,
2013-02-13 03:00:00,41.5,38.0,30.21,South,184,1.0,2.0,88,0.00,,,0.00,0,weatherlink.com 1.10,2013-02-13 11:00:00,
2013-02-13 03:15:00,40.9,38.0,30.21,SSE,151,1.0,3.0,90,0.00,,,0.00,0,weatherlink.com 1.10,2013-02-13 11:15:00,
2013-02-13 03:30:00,40.6,38.0,30.21,SSE,151,2.0,3.0,91,0.00,,,0.00,0,weatherlink.com 1.10,2013-02-13 11:30:00,
2013-02-13 03:45:00,40.3,38.0,30.21,SE,142,1.0,3.0,90,0.00,,,0.00,0,weatherlink.com 1.10,2013-02-13 11:45:00,
2013-02-13 04:00:00,39.7,38.0,30.20,SE,142,2.0,3.0,92,0.00,,,0.00,0,weatherlink.com 1.10,2013-02-13 12:00:00,
2013-02-13 04:15:00,39.9,37.0,30.20,SE,139,1.0,3.0,90,0.00,,,0.00,0,weatherlink.com 1.10,2013-02-13 12:15:00,
2013-02-13 04:30:00,40.4,38.0,30.20,SE,139,1.0,3.0,90,0.00,,,0.00,0,weatherlink.com 1.10,2013-02-13 12:30:00,
2013-02-13 04:45:00,39.9,37.0,30.21,SE,139,1.0,2.0,90,0.00,,,0.00,0,weatherlink.com 1.10,2013-02-13 12:45:00,
2013-02-13 05:00:00,39.8,38.0,30.21,SE,139,1.0,3.0,92,0.00,,,0.00,0,weatherlink.com 1.10,2013-02-13 13:00:00,
2013-02-13 05:15:00,39.8,38.0,30.20,SE,139,2.0,3.0,92,0.00,,,0.00,0,weatherlink.com 1.10,2013-02-13 13:15:00,
2013-02-13 05:30:00,39.3,37.0,30.21,SE,139,1.0,2.0,92,0.00,,,0.00,0,weatherlink.com 1.10,2013-02-13 13:30:00,
2013-02-13 05:45:00,39.3,38.0,30.21,SE,139,2.0,2.0,93,0.00,,,0.00,0,weatherlink.com 1.10,2013-02-13 13:45:00,
2013-02-13 06:00:00,38.9,37.0,30.21,SE,139,1.0,2.0,92,0.00,,,0.00,0,weatherlink.com 1.10,2013-02-13 14:00:00,
2013-02-13 06:15:00,38.6,37.0,30.21,SE,139,1.0,2.0,93,0.00,,,0.00,0,weatherlink.com 1.10,2013-02-13 14:15:00,
2013-02-13 06:30:00,38.4,36.0,30.21,SE,139,2.0,3.0,92,0.00,,,0.00,0,weatherlink.com 1.10,2013-02-13 14:30:00,
2013-02-13 06:45:00,38.4,36.0,30.21,SE,139,1.0,2.0,91,0.00,,,0.00,0,weatherlink.com 1.10,2013-02-13 14:45:00,
2013-02-13 07:00:00,39.0,37.0,30.22,SE,139,2.0,3.0,91,0.00,,,0.00,0,weatherlink.com 1.10,2013-02-13 15:00:00,
2013-02-13 07:15:00,38.8,36.0,30.22,SE,139,2.0,3.0,91,0.00,,,0.00,11,weatherlink.com 1.10,2013-02-13 15:15:00,
2013-02-13 07:30:00,39.5,37.0,30.22,SE,139,1.0,2.0,91,0.00,,,0.00,16,weatherlink.com 1.10,2013-02-13 15:30:00,
2013-02-13 07:45:00,39.6,37.0,30.23,SE,139,1.0,2.0,91,0.00,,,0.00,21,weatherlink.com 1.10,2013-02-13 15:45:00,
2013-02-13 08:00:00,40.2,38.0,30.23,SE,139,0.0,2.0,91,0.00,,,0.00,32,weatherlink.com 1.10,2013-02-13 16:00:00,
2013-02-13 08:15:00,41.6,39.0,30.23,SE,139,0.0,2.0,89,0.00,,,0.00,28,weatherlink.com 1.10,2013-02-13 16:15:00,
2013-02-13 08:30:00,41.7,39.0,30.23,SE,139,0.0,1.0,90,0.00,,,0.00,32,weatherlink.com 1.10,2013-02-13 16:30:00,
2013-02-13 08:45:00,43.2,40.0,30.23,SE,139,0.0,1.0,88,0.00,,,0.00,274,weatherlink.com 1.10,2013-02-13 16:45:00,
2013-02-13 09:01:00,46.2,42.0,30.23,SE,139,0.0,0.0,85,0.00,,,0.00,320,weatherlink.com 1.10,2013-02-13 17:01:00,
2013-02-13 09:15:00,48.6,43.0,30.24,SE,139,0.0,2.0,82,0.00,,,0.00,366,weatherlink.com 1.10,2013-02-13 17:15:00,
2013-02-13 09:30:00,50.8,46.0,30.24,SE,144,1.0,2.0,83,0.00,,,0.00,422,weatherlink.com 1.10,2013-02-13 17:30:00,
2013-02-13 09:45:00,53.6,44.0,30.23,SSE,148,0.0,1.0,70,0.00,,,0.00,462,weatherlink.com 1.10,2013-02-13 17:45:00,
2013-02-13 10:01:00,55.7,46.0,30.23,North,5,1.0,3.0,70,0.00,,,0.00,501,weatherlink.com 1.10,2013-02-13 18:01:00,
2013-02-13 10:16:00,54.9,44.0,30.23,NNE,24,0.0,2.0,68,0.00,,,0.00,534,weatherlink.com 1.10,2013-02-13 18:16:00,
2013-02-13 10:31:00,56.7,46.0,30.23,West,281,2.0,3.0,68,0.00,,,0.00,563,weatherlink.com 1.10,2013-02-13 18:31:00,
2013-02-13 10:46:00,58.8,46.0,30.23,WNW,290,2.0,4.0,63,0.00,,,0.00,592,weatherlink.com 1.10,2013-02-13 18:46:00,
2013-02-13 11:01:00,60.5,45.0,30.23,NW,309,2.0,5.0,58,0.00,,,0.00,617,weatherlink.com 1.10,2013-02-13 19:01:00,
2013-02-13 11:46:00,62.0,45.0,30.21,NW,315,5.0,6.0,55,0.00,,,0.00,663,weatherlink.com 1.10,2013-02-13 19:46:00,
2013-02-13 12:16:00,64.9,46.0,30.20,NW,304,4.0,6.0,50,0.00,,,0.00,673,weatherlink.com 1.10,2013-02-13 20:16:00,
2013-02-13 12:31:00,65.1,44.0,30.19,West,267,4.0,9.0,46,0.00,,,0.00,679,weatherlink.com 1.10,2013-02-13 20:31:00,
2013-02-13 12:46:00,66.0,43.0,30.18,WSW,247,2.0,7.0,44,0.00,,,0.00,673,weatherlink.com 1.10,2013-02-13 20:46:00,
2013-02-13 13:01:00,65.8,42.0,30.18,WSW,247,4.0,9.0,42,0.00,,,0.00,664,weatherlink.com 1.10,2013-02-13 21:01:00,
2013-02-13 13:16:00,66.7,42.0,30.17,WNW,301,3.0,8.0,40,0.00,,,0.00,652,weatherlink.com 1.10,2013-02-13 21:16:00,
2013-02-13 13:32:00,67.0,43.0,30.17,WNW,290,3.0,8.0,42,0.00,,,0.00,636,weatherlink.com 1.10,2013-02-13 21:32:00,
2013-02-13 13:46:00,68.0,42.0,30.16,West,263,3.0,8.0,39,0.00,,,0.00,621,weatherlink.com 1.10,2013-02-13 21:46:00,
2013-02-13 14:01:00,67.3,41.0,30.15,West,259,2.0,7.0,38,0.00,,,0.00,598,weatherlink.com 1.10,2013-02-13 22:01:00,
2013-02-13 14:17:00,67.1,40.0,30.14,North,355,0.0,6.0,37,0.00,,,0.00,570,weatherlink.com 1.10,2013-02-13 22:17:00,
2013-02-13 14:32:00,67.9,43.0,30.14,West,275,3.0,6.0,40,0.00,,,0.00,540,weatherlink.com 1.10,2013-02-13 22:32:00,
2013-02-13 14:47:00,68.3,42.0,30.14,WNW,292,5.0,6.0,39,0.00,,,0.00,504,weatherlink.com 1.10,2013-02-13 22:47:00,
2013-02-13 15:02:00,68.7,42.0,30.13,NW,312,3.0,6.0,38,0.00,,,0.00,469,weatherlink.com 1.10,2013-02-13 23:02:00,
2013-02-13 15:17:00,68.7,43.0,30.13,NNW,348,2.0,6.0,40,0.00,,,0.00,431,weatherlink.com 1.10,2013-02-13 23:17:00,
2013-02-13 15:32:00,68.6,44.0,30.12,SSW,213,0.0,7.0,42,0.00,,,0.00,387,weatherlink.com 1.10,2013-02-13 23:32:00,
2013-02-13 15:47:00,68.1,45.0,30.12,West,265,2.0,6.0,44,0.00,,,0.00,345,weatherlink.com 1.10,2013-02-13 23:47:00,
2013-02-13 16:02:00,67.7,45.0,30.12,SW,214,2.0,5.0,44,0.00,,,0.00,297,weatherlink.com 1.10,2013-02-14 00:02:00,
2013-02-13 16:17:00,66.0,45.0,30.12,NW,311,1.0,6.0,47,0.00,,,0.00,218,weatherlink.com 1.10,2013-02-14 00:17:00,
2013-02-13 16:32:00,64.5,45.0,30.11,WSW,240,4.0,7.0,49,0.00,,,0.00,79,weatherlink.com 1.10,2013-02-14 00:32:00,
2013-02-13 16:47:00,62.9,44.0,30.11,West,272,1.0,5.0,51,0.00,,,0.00,120,weatherlink.com 1.10,2013-02-14 00:47:00,
2013-02-13 17:02:00,60.8,45.0,30.11,WSW,245,1.0,3.0,56,0.00,,,0.00,28,weatherlink.com 1.10,2013-02-14 01:02:00,
2013-02-13 17:32:00,56.6,44.0,30.11,South,173,1.0,3.0,64,0.00,,,0.00,12,weatherlink.com 1.10,2013-02-14 01:32:00,
2013-02-13 17:47:00,55.1,44.0,30.11,SSE,147,2.0,4.0,67,0.00,,,0.00,5,weatherlink.com 1.10,2013-02-14 01:47:00,
2013-02-13 18:02:00,54.0,44.0,30.11,SSE,160,2.0,4.0,69,0.00,,,0.00,0,weatherlink.com 1.10,2013-02-14 02:02:00,
2013-02-13 18:17:00,53.3,44.0,30.11,SE,144,2.0,4.0,71,0.00,,,0.00,0,weatherlink.com 1.10,2013-02-14 02:17:00,
2013-02-13 18:32:00,51.9,44.0,30.11,SE,143,2.0,3.0,74,0.00,,,0.00,0,weatherlink.com 1.10,2013-02-14 02:32:00,
2013-02-13 18:47:00,51.1,43.0,30.11,SE,143,1.0,2.0,75,0.00,,,0.00,0,weatherlink.com 1.10,2013-02-14 02:47:00,
2013-02-13 19:02:00,50.5,44.0,30.11,SE,140,2.0,3.0,77,0.00,,,0.00,0,weatherlink.com 1.10,2013-02-14 03:02:00,
2013-02-13 19:17:00,49.7,43.0,30.11,SE,140,2.0,2.0,79,0.00,,,0.00,0,weatherlink.com 1.10,2013-02-14 03:17:00,
2013-02-13 19:32:00,49.2,43.0,30.11,SE,140,1.0,2.0,80,0.00,,,0.00,0,weatherlink.com 1.10,2013-02-14 03:32:00,
2013-02-13 19:47:00,48.8,43.0,30.11,SE,140,1.0,2.0,81,0.00,,,0.00,0,weatherlink.com 1.10,2013-02-14 03:47:00,
2013-02-13 20:02:00,48.4,43.0,30.11,SE,140,2.0,3.0,82,0.00,,,0.00,0,weatherlink.com 1.10,2013-02-14 04:02:00,
2013-02-13 20:17:00,47.7,43.0,30.12,SE,140,2.0,3.0,83,0.00,,,0.00,0,weatherlink.com 1.10,2013-02-14 04:17:00,
2013-02-13 21:02:00,46.7,43.0,30.12,SE,140,2.0,3.0,86,0.00,,,0.00,0,weatherlink.com 1.10,2013-02-14 05:02:00,
2013-02-13 21:17:00,46.9,43.0,30.12,SE,140,2.0,3.0,85,0.00,,,0.00,0,weatherlink.com 1.10,2013-02-14 05:17:00,
2013-02-13 21:32:00,47.0,43.0,30.12,SE,140,2.0,3.0,85,0.00,,,0.00,0,weatherlink.com 1.10,2013-02-14 05:32:00,
2013-02-13 21:49:00,46.8,43.0,30.12,SE,140,1.0,3.0,85,0.00,,,0.00,0,weatherlink.com 1.10,2013-02-14 05:49:00,
2013-02-13 22:03:00,46.4,42.0,30.12,SE,140,1.0,2.0,85,0.00,,,0.00,0,weatherlink.com 1.10,2013-02-14 06:03:00,
2013-02-13 22:17:00,46.5,42.0,30.12,SE,140,2.0,3.0,84,0.00,,,0.00,0,weatherlink.com 1.10,2013-02-14 06:17:00,
2013-02-13 22:47:00,45.7,42.0,30.12,SE,139,2.0,4.0,86,0.00,,,0.00,0,weatherlink.com 1.10,2013-02-14 06:47:00,
2013-02-13 23:03:00,45.7,42.0,30.12,SE,142,0.0,3.0,87,0.00,,,0.00,0,weatherlink.com 1.10,2013-02-14 07:03:00,
2013-02-13 23:18:00,45.5,42.0,30.12,ESE,104,2.0,4.0,87,0.00,,,0.00,0,weatherlink.com 1.10,2013-02-14 07:18:00,
2013-02-13 23:33:00,46.0,42.0,30.13,SE,135,3.0,5.0,85,0.00,,,0.00,0,weatherlink.com 1.10,2013-02-14 07:33:00,
2013-02-13 23:47:00,45.2,42.0,30.12,SE,141,1.0,3.0,87,0.00,,,0.00,0,weatherlink.com 1.10,2013-02-14 07:47:00,